sensor_id;sensor_type;location;lat;lon;timestamp;temperature;humidity
32534;DHT22;18973;48.580;8.912;2023-07-28T00:00:21;17.00;99.90
32534;DHT22;18973;48.580;8.912;2023-07-28T00:02:47;16.90;99.90
32534;DHT22;18973;48.580;8.912;2023-07-28T00:05:12;16.90;99.90
32534;DHT22;18973;48.580;8.912;2023-07-28T00:07:38;16.80;99.90
32534;DHT22;18973;48.580;8.912;2023-07-28T00:10:04;17.00;99.90
32534;DHT22;18973;48.580;8.912;2023-07-28T00:12:30;16.70;99.90
32534;DHT22;18973;48.580;8.912;2023-07-28T00:14:55;16.80;99.90
32534;DHT22;18973;48.580;8.912;2023-07-28T00:17:21;16.70;99.90
32534;DHT22;18973;48.580;8.912;2023-07-28T00:19:47;16.50;99.90
32534;DHT22;18973;48.580;8.912;2023-07-28T00:22:12;16.50;99.90
32534;DHT22;18973;48.580;8.912;2023-07-28T00:24:38;16.50;99.90
32534;DHT22;18973;48.580;8.912;2023-07-28T00:27:04;16.60;99.90
32534;DHT22;18973;48.580;8.912;2023-07-28T00:29:30;16.70;99.90
32534;DHT22;18973;48.580;8.912;2023-07-28T00:31:56;16.50;99.90
32534;DHT22;18973;48.580;8.912;2023-07-28T00:34:21;16.50;99.90
32534;DHT22;18973;48.580;8.912;2023-07-28T00:36:47;16.40;99.90
32534;DHT22;18973;48.580;8.912;2023-07-28T00:39:13;16.30;99.90
32534;DHT22;18973;48.580;8.912;2023-07-28T00:41:39;16.40;99.90
32534;DHT22;18973;48.580;8.912;2023-07-28T00:44:04;16.30;99.90
32534;DHT22;18973;48.580;8.912;2023-07-28T00:46:30;16.30;99.90
32534;DHT22;18973;48.580;8.912;2023-07-28T00:48:56;16.30;99.90
32534;DHT22;18973;48.580;8.912;2023-07-28T00:51:22;16.30;99.90
32534;DHT22;18973;48.580;8.912;2023-07-28T00:53:48;16.30;99.90
32534;DHT22;18973;48.580;8.912;2023-07-28T00:56:14;16.50;99.90
32534;DHT22;18973;48.580;8.912;2023-07-28T00:58:40;16.50;99.90
32534;DHT22;18973;48.580;8.912;2023-07-28T01:01:06;16.50;99.90
32534;DHT22;18973;48.580;8.912;2023-07-28T01:03:32;16.30;99.90
32534;DHT22;18973;48.580;8.912;2023-07-28T01:06:35;16.10;99.90
32534;DHT22;18973;48.580;8.912;2023-07-28T01:09:05;16.30;99.90
32534;DHT22;18973;48.580;8.912;2023-07-28T01:11:35;16.20;99.90
32534;DHT22;18973;48.580;8.912;2023-07-28T01:14:00;16.20;99.90
32534;DHT22;18973;48.580;8.912;2023-07-28T01:16:26;16.10;99.90
32534;DHT22;18973;48.580;8.912;2023-07-28T01:18:52;16.10;99.90
32534;DHT22;18973;48.580;8.912;2023-07-28T01:21:21;16.10;99.90
32534;DHT22;18973;48.580;8.912;2023-07-28T01:24:15;16.10;99.90
32534;DHT22;18973;48.580;8.912;2023-07-28T01:26:41;15.90;99.90
32534;DHT22;18973;48.580;8.912;2023-07-28T01:29:07;15.90;99.90
32534;DHT22;18973;48.580;8.912;2023-07-28T01:31:34;15.90;99.90
32534;DHT22;18973;48.580;8.912;2023-07-28T01:33:59;16.00;99.90
32534;DHT22;18973;48.580;8.912;2023-07-28T01:36:25;16.00;99.90
32534;DHT22;18973;48.580;8.912;2023-07-28T01:38:51;15.90;99.90
32534;DHT22;18973;48.580;8.912;2023-07-28T01:41:16;16.00;99.90
32534;DHT22;18973;48.580;8.912;2023-07-28T01:43:42;16.00;99.90
32534;DHT22;18973;48.580;8.912;2023-07-28T01:46:08;16.10;99.90
32534;DHT22;18973;48.580;8.912;2023-07-28T01:48:33;16.30;99.90
32534;DHT22;18973;48.580;8.912;2023-07-28T01:50:59;16.40;99.90
32534;DHT22;18973;48.580;8.912;2023-07-28T01:53:25;16.30;99.90
32534;DHT22;18973;48.580;8.912;2023-07-28T01:55:51;16.20;99.90
32534;DHT22;18973;48.580;8.912;2023-07-28T01:58:16;16.20;99.90
32534;DHT22;18973;48.580;8.912;2023-07-28T02:00:42;16.10;99.90
32534;DHT22;18973;48.580;8.912;2023-07-28T02:03:08;16.20;99.90
32534;DHT22;18973;48.580;8.912;2023-07-28T02:05:33;16.10;99.90
32534;DHT22;18973;48.580;8.912;2023-07-28T02:07:59;16.10;99.90
32534;DHT22;18973;48.580;8.912;2023-07-28T02:10:26;16.10;99.90
32534;DHT22;18973;48.580;8.912;2023-07-28T02:12:52;16.20;99.90
32534;DHT22;18973;48.580;8.912;2023-07-28T02:15:18;16.20;99.90
32534;DHT22;18973;48.580;8.912;2023-07-28T02:17:44;15.90;99.90
32534;DHT22;18973;48.580;8.912;2023-07-28T02:20:10;15.80;99.90
32534;DHT22;18973;48.580;8.912;2023-07-28T02:22:41;15.90;99.90
32534;DHT22;18973;48.580;8.912;2023-07-28T02:25:07;15.90;99.90
32534;DHT22;18973;48.580;8.912;2023-07-28T02:27:32;15.70;99.90
32534;DHT22;18973;48.580;8.912;2023-07-28T02:29:58;15.70;99.90
32534;DHT22;18973;48.580;8.912;2023-07-28T02:32:24;15.70;99.90
32534;DHT22;18973;48.580;8.912;2023-07-28T02:34:50;15.70;99.90
32534;DHT22;18973;48.580;8.912;2023-07-28T02:37:16;15.70;99.90
32534;DHT22;18973;48.580;8.912;2023-07-28T02:39:41;15.70;99.90
32534;DHT22;18973;48.580;8.912;2023-07-28T02:42:07;15.70;99.90
32534;DHT22;18973;48.580;8.912;2023-07-28T02:44:33;15.80;99.90
32534;DHT22;18973;48.580;8.912;2023-07-28T02:46:59;15.90;99.90
32534;DHT22;18973;48.580;8.912;2023-07-28T02:49:24;15.90;99.90
32534;DHT22;18973;48.580;8.912;2023-07-28T02:51:50;15.80;99.90
32534;DHT22;18973;48.580;8.912;2023-07-28T02:54:16;15.80;99.90
32534;DHT22;18973;48.580;8.912;2023-07-28T02:56:41;15.80;99.90
32534;DHT22;18973;48.580;8.912;2023-07-28T02:59:07;15.80;99.90
32534;DHT22;18973;48.580;8.912;2023-07-28T03:01:33;15.80;99.90
32534;DHT22;18973;48.580;8.912;2023-07-28T03:04:00;15.80;99.90
32534;DHT22;18973;48.580;8.912;2023-07-28T03:06:26;15.80;99.90
32534;DHT22;18973;48.580;8.912;2023-07-28T03:08:51;15.80;99.90
32534;DHT22;18973;48.580;8.912;2023-07-28T03:11:17;15.80;99.90
32534;DHT22;18973;48.580;8.912;2023-07-28T03:13:43;15.90;99.90
32534;DHT22;18973;48.580;8.912;2023-07-28T03:16:08;15.90;99.90
32534;DHT22;18973;48.580;8.912;2023-07-28T03:18:35;15.90;99.90
32534;DHT22;18973;48.580;8.912;2023-07-28T03:21:01;16.00;99.90
32534;DHT22;18973;48.580;8.912;2023-07-28T03:23:27;16.00;99.90
32534;DHT22;18973;48.580;8.912;2023-07-28T03:25:52;16.10;99.90
32534;DHT22;18973;48.580;8.912;2023-07-28T03:28:18;16.00;99.90
32534;DHT22;18973;48.580;8.912;2023-07-28T03:30:44;16.10;99.90
32534;DHT22;18973;48.580;8.912;2023-07-28T03:33:10;16.10;99.90
32534;DHT22;18973;48.580;8.912;2023-07-28T03:35:36;16.10;99.90
32534;DHT22;18973;48.580;8.912;2023-07-28T03:38:01;16.10;99.90
32534;DHT22;18973;48.580;8.912;2023-07-28T03:40:28;16.10;99.90
32534;DHT22;18973;48.580;8.912;2023-07-28T03:42:54;16.00;99.90
32534;DHT22;18973;48.580;8.912;2023-07-28T03:45:20;16.10;99.90
32534;DHT22;18973;48.580;8.912;2023-07-28T03:47:46;16.00;99.90
32534;DHT22;18973;48.580;8.912;2023-07-28T03:50:12;15.90;99.90
32534;DHT22;18973;48.580;8.912;2023-07-28T03:52:37;16.00;99.90
32534;DHT22;18973;48.580;8.912;2023-07-28T03:55:04;16.10;99.90
32534;DHT22;18973;48.580;8.912;2023-07-28T03:57:29;16.00;99.90
32534;DHT22;18973;48.580;8.912;2023-07-28T03:59:55;16.00;99.90
32534;DHT22;18973;48.580;8.912;2023-07-28T04:02:21;16.10;99.90
32534;DHT22;18973;48.580;8.912;2023-07-28T04:04:46;16.00;99.90
32534;DHT22;18973;48.580;8.912;2023-07-28T04:07:12;16.00;99.90
32534;DHT22;18973;48.580;8.912;2023-07-28T04:09:38;16.00;99.90
32534;DHT22;18973;48.580;8.912;2023-07-28T04:12:04;16.00;99.90
32534;DHT22;18973;48.580;8.912;2023-07-28T04:14:29;16.00;99.90
32534;DHT22;18973;48.580;8.912;2023-07-28T04:16:55;16.10;99.90
32534;DHT22;18973;48.580;8.912;2023-07-28T04:19:21;16.10;99.90
32534;DHT22;18973;48.580;8.912;2023-07-28T04:21:46;16.10;99.90
32534;DHT22;18973;48.580;8.912;2023-07-28T04:24:12;16.10;99.90
32534;DHT22;18973;48.580;8.912;2023-07-28T04:26:38;16.30;99.90
32534;DHT22;18973;48.580;8.912;2023-07-28T04:29:04;16.30;99.90
32534;DHT22;18973;48.580;8.912;2023-07-28T04:31:29;16.20;99.90
32534;DHT22;18973;48.580;8.912;2023-07-28T04:33:55;16.30;99.90
32534;DHT22;18973;48.580;8.912;2023-07-28T04:36:21;16.30;99.90
32534;DHT22;18973;48.580;8.912;2023-07-28T04:38:46;16.30;99.90
32534;DHT22;18973;48.580;8.912;2023-07-28T04:41:12;16.30;99.90
32534;DHT22;18973;48.580;8.912;2023-07-28T04:43:38;16.40;99.90
32534;DHT22;18973;48.580;8.912;2023-07-28T04:46:03;16.40;99.90
32534;DHT22;18973;48.580;8.912;2023-07-28T04:48:29;16.40;99.90
32534;DHT22;18973;48.580;8.912;2023-07-28T04:50:55;16.50;99.90
32534;DHT22;18973;48.580;8.912;2023-07-28T04:53:20;16.50;99.90
32534;DHT22;18973;48.580;8.912;2023-07-28T04:55:46;16.50;99.90
32534;DHT22;18973;48.580;8.912;2023-07-28T04:58:12;16.50;99.90
32534;DHT22;18973;48.580;8.912;2023-07-28T05:00:37;16.60;99.90
32534;DHT22;18973;48.580;8.912;2023-07-28T05:03:03;16.60;99.90
32534;DHT22;18973;48.580;8.912;2023-07-28T05:05:29;16.60;99.90
32534;DHT22;18973;48.580;8.912;2023-07-28T05:07:55;16.60;99.90
32534;DHT22;18973;48.580;8.912;2023-07-28T05:10:21;16.70;99.90
32534;DHT22;18973;48.580;8.912;2023-07-28T05:12:46;16.70;99.90
32534;DHT22;18973;48.580;8.912;2023-07-28T05:15:14;16.70;99.90
32534;DHT22;18973;48.580;8.912;2023-07-28T05:17:40;16.70;99.90
32534;DHT22;18973;48.580;8.912;2023-07-28T05:20:09;16.60;99.90
32534;DHT22;18973;48.580;8.912;2023-07-28T05:22:35;16.70;99.90
32534;DHT22;18973;48.580;8.912;2023-07-28T05:25:01;16.60;99.90
32534;DHT22;18973;48.580;8.912;2023-07-28T05:27:27;16.70;99.90
32534;DHT22;18973;48.580;8.912;2023-07-28T05:29:52;16.70;99.90
32534;DHT22;18973;48.580;8.912;2023-07-28T05:32:18;16.70;99.90
32534;DHT22;18973;48.580;8.912;2023-07-28T05:34:44;16.80;99.90
32534;DHT22;18973;48.580;8.912;2023-07-28T05:37:10;16.80;99.90
32534;DHT22;18973;48.580;8.912;2023-07-28T05:39:36;16.80;99.90
32534;DHT22;18973;48.580;8.912;2023-07-28T05:42:02;16.90;99.90
32534;DHT22;18973;48.580;8.912;2023-07-28T05:44:28;16.90;99.90
32534;DHT22;18973;48.580;8.912;2023-07-28T05:46:54;17.00;99.90
32534;DHT22;18973;48.580;8.912;2023-07-28T05:49:20;16.90;99.90
32534;DHT22;18973;48.580;8.912;2023-07-28T05:51:45;16.90;99.90
32534;DHT22;18973;48.580;8.912;2023-07-28T05:54:14;17.00;99.90
32534;DHT22;18973;48.580;8.912;2023-07-28T05:56:40;16.90;99.90
32534;DHT22;18973;48.580;8.912;2023-07-28T05:59:06;16.90;99.90
32534;DHT22;18973;48.580;8.912;2023-07-28T06:01:32;16.90;99.90
32534;DHT22;18973;48.580;8.912;2023-07-28T06:03:58;16.90;99.90
32534;DHT22;18973;48.580;8.912;2023-07-28T06:06:27;16.90;99.90
32534;DHT22;18973;48.580;8.912;2023-07-28T06:08:53;17.00;99.90
32534;DHT22;18973;48.580;8.912;2023-07-28T06:11:20;17.10;99.90
32534;DHT22;18973;48.580;8.912;2023-07-28T06:13:46;17.20;99.90
32534;DHT22;18973;48.580;8.912;2023-07-28T06:16:13;17.20;99.90
32534;DHT22;18973;48.580;8.912;2023-07-28T06:18:38;17.30;99.90
32534;DHT22;18973;48.580;8.912;2023-07-28T06:21:04;17.20;99.90
32534;DHT22;18973;48.580;8.912;2023-07-28T06:23:30;17.20;99.90
32534;DHT22;18973;48.580;8.912;2023-07-28T06:25:55;17.20;99.90
32534;DHT22;18973;48.580;8.912;2023-07-28T06:28:21;17.20;99.90
32534;DHT22;18973;48.580;8.912;2023-07-28T06:30:47;17.30;99.90
32534;DHT22;18973;48.580;8.912;2023-07-28T06:33:13;17.40;99.90
32534;DHT22;18973;48.580;8.912;2023-07-28T06:35:38;17.50;99.90
32534;DHT22;18973;48.580;8.912;2023-07-28T06:38:04;17.50;99.90
32534;DHT22;18973;48.580;8.912;2023-07-28T06:40:30;17.50;99.90
32534;DHT22;18973;48.580;8.912;2023-07-28T06:42:56;17.50;99.90
32534;DHT22;18973;48.580;8.912;2023-07-28T06:45:21;17.60;99.90
32534;DHT22;18973;48.580;8.912;2023-07-28T06:47:47;17.70;99.90
32534;DHT22;18973;48.580;8.912;2023-07-28T06:50:14;17.80;99.90
32534;DHT22;18973;48.580;8.912;2023-07-28T06:52:39;17.80;99.90
32534;DHT22;18973;48.580;8.912;2023-07-28T06:55:06;17.90;99.90
32534;DHT22;18973;48.580;8.912;2023-07-28T06:57:31;18.00;99.90
32534;DHT22;18973;48.580;8.912;2023-07-28T06:59:57;18.10;99.90
32534;DHT22;18973;48.580;8.912;2023-07-28T07:02:23;18.20;99.90
32534;DHT22;18973;48.580;8.912;2023-07-28T07:04:49;18.20;99.90
32534;DHT22;18973;48.580;8.912;2023-07-28T07:07:15;18.20;99.90
32534;DHT22;18973;48.580;8.912;2023-07-28T07:09:41;18.30;99.90
32534;DHT22;18973;48.580;8.912;2023-07-28T07:12:08;18.30;99.90
32534;DHT22;18973;48.580;8.912;2023-07-28T07:14:34;18.30;99.90
32534;DHT22;18973;48.580;8.912;2023-07-28T07:17:00;18.30;99.90
32534;DHT22;18973;48.580;8.912;2023-07-28T07:19:28;18.30;99.90
32534;DHT22;18973;48.580;8.912;2023-07-28T07:21:54;18.30;99.90
32534;DHT22;18973;48.580;8.912;2023-07-28T07:24:20;18.40;99.90
32534;DHT22;18973;48.580;8.912;2023-07-28T07:26:46;18.50;99.90
32534;DHT22;18973;48.580;8.912;2023-07-28T07:29:12;18.60;99.90
32534;DHT22;18973;48.580;8.912;2023-07-28T07:31:38;18.70;99.90
32534;DHT22;18973;48.580;8.912;2023-07-28T07:34:04;18.70;99.90
32534;DHT22;18973;48.580;8.912;2023-07-28T07:36:30;18.70;99.90
32534;DHT22;18973;48.580;8.912;2023-07-28T07:38:55;18.80;99.90
32534;DHT22;18973;48.580;8.912;2023-07-28T07:41:22;18.80;99.90
32534;DHT22;18973;48.580;8.912;2023-07-28T07:43:49;18.80;99.90
32534;DHT22;18973;48.580;8.912;2023-07-28T07:46:15;18.90;99.90
32534;DHT22;18973;48.580;8.912;2023-07-28T07:48:41;18.90;99.90
32534;DHT22;18973;48.580;8.912;2023-07-28T07:51:08;19.00;99.90
32534;DHT22;18973;48.580;8.912;2023-07-28T07:53:34;19.00;99.90
32534;DHT22;18973;48.580;8.912;2023-07-28T07:56:05;19.00;99.90
32534;DHT22;18973;48.580;8.912;2023-07-28T07:58:31;19.10;99.90
32534;DHT22;18973;48.580;8.912;2023-07-28T08:00:56;19.10;99.90
32534;DHT22;18973;48.580;8.912;2023-07-28T08:03:22;19.10;99.90
32534;DHT22;18973;48.580;8.912;2023-07-28T08:05:50;19.20;99.90
32534;DHT22;18973;48.580;8.912;2023-07-28T08:08:15;19.40;99.90
32534;DHT22;18973;48.580;8.912;2023-07-28T08:10:43;19.50;99.90
32534;DHT22;18973;48.580;8.912;2023-07-28T08:13:09;19.60;99.90
32534;DHT22;18973;48.580;8.912;2023-07-28T08:15:34;19.70;99.90
32534;DHT22;18973;48.580;8.912;2023-07-28T08:18:00;19.90;99.90
32534;DHT22;18973;48.580;8.912;2023-07-28T08:20:26;20.20;99.90
32534;DHT22;18973;48.580;8.912;2023-07-28T08:22:52;20.50;99.90
32534;DHT22;18973;48.580;8.912;2023-07-28T08:25:18;20.70;99.90
32534;DHT22;18973;48.580;8.912;2023-07-28T08:27:44;20.80;99.90
32534;DHT22;18973;48.580;8.912;2023-07-28T08:30:10;20.80;99.90
32534;DHT22;18973;48.580;8.912;2023-07-28T08:32:36;20.80;99.90
32534;DHT22;18973;48.580;8.912;2023-07-28T08:35:02;20.70;99.90
32534;DHT22;18973;48.580;8.912;2023-07-28T08:37:28;20.60;99.90
32534;DHT22;18973;48.580;8.912;2023-07-28T08:39:54;20.60;99.90
32534;DHT22;18973;48.580;8.912;2023-07-28T08:42:21;20.50;99.90
32534;DHT22;18973;48.580;8.912;2023-07-28T08:44:48;20.60;99.90
32534;DHT22;18973;48.580;8.912;2023-07-28T08:47:14;20.60;99.90
32534;DHT22;18973;48.580;8.912;2023-07-28T08:49:40;20.70;99.90
32534;DHT22;18973;48.580;8.912;2023-07-28T08:52:05;20.90;99.90
32534;DHT22;18973;48.580;8.912;2023-07-28T08:54:31;21.00;99.90
32534;DHT22;18973;48.580;8.912;2023-07-28T08:56:58;21.10;99.90
32534;DHT22;18973;48.580;8.912;2023-07-28T08:59:25;21.10;99.90
32534;DHT22;18973;48.580;8.912;2023-07-28T09:01:52;21.10;99.90
32534;DHT22;18973;48.580;8.912;2023-07-28T09:04:20;21.20;99.90
32534;DHT22;18973;48.580;8.912;2023-07-28T09:06:46;21.20;99.90
32534;DHT22;18973;48.580;8.912;2023-07-28T09:09:13;21.30;99.90
32534;DHT22;18973;48.580;8.912;2023-07-28T09:11:50;21.20;99.90
32534;DHT22;18973;48.580;8.912;2023-07-28T09:14:17;21.30;99.90
32534;DHT22;18973;48.580;8.912;2023-07-28T09:16:43;21.50;99.90
32534;DHT22;18973;48.580;8.912;2023-07-28T09:19:09;21.60;99.90
32534;DHT22;18973;48.580;8.912;2023-07-28T09:21:36;21.70;99.90
32534;DHT22;18973;48.580;8.912;2023-07-28T09:24:13;22.00;99.90
32534;DHT22;18973;48.580;8.912;2023-07-28T09:26:46;22.20;99.90
32534;DHT22;18973;48.580;8.912;2023-07-28T09:29:19;22.20;99.90
32534;DHT22;18973;48.580;8.912;2023-07-28T09:31:46;22.20;99.90
32534;DHT22;18973;48.580;8.912;2023-07-28T09:34:22;22.20;99.90
32534;DHT22;18973;48.580;8.912;2023-07-28T09:36:49;22.10;99.90
32534;DHT22;18973;48.580;8.912;2023-07-28T09:39:14;22.10;99.90
32534;DHT22;18973;48.580;8.912;2023-07-28T09:41:42;22.20;99.90
32534;DHT22;18973;48.580;8.912;2023-07-28T09:44:10;22.30;99.90
32534;DHT22;18973;48.580;8.912;2023-07-28T09:46:36;22.30;99.90
32534;DHT22;18973;48.580;8.912;2023-07-28T09:49:15;22.40;99.90
32534;DHT22;18973;48.580;8.912;2023-07-28T09:51:46;22.70;99.90
32534;DHT22;18973;48.580;8.912;2023-07-28T09:54:19;23.10;99.90
32534;DHT22;18973;48.580;8.912;2023-07-28T09:56:50;23.40;99.90
32534;DHT22;18973;48.580;8.912;2023-07-28T09:59:18;23.60;99.90
32534;DHT22;18973;48.580;8.912;2023-07-28T10:01:45;23.50;99.90
32534;DHT22;18973;48.580;8.912;2023-07-28T10:04:11;23.50;99.90
32534;DHT22;18973;48.580;8.912;2023-07-28T10:06:37;23.60;99.90
32534;DHT22;18973;48.580;8.912;2023-07-28T10:09:04;23.80;99.90
32534;DHT22;18973;48.580;8.912;2023-07-28T10:11:33;24.00;99.90
32534;DHT22;18973;48.580;8.912;2023-07-28T10:14:00;24.20;99.90
32534;DHT22;18973;48.580;8.912;2023-07-28T10:16:30;24.40;99.90
32534;DHT22;18973;48.580;8.912;2023-07-28T10:18:58;24.30;99.90
32534;DHT22;18973;48.580;8.912;2023-07-28T10:21:27;24.20;99.90
32534;DHT22;18973;48.580;8.912;2023-07-28T10:23:58;24.00;99.90
32534;DHT22;18973;48.580;8.912;2023-07-28T10:26:39;23.90;99.90
32534;DHT22;18973;48.580;8.912;2023-07-28T10:29:15;23.80;99.90
32534;DHT22;18973;48.580;8.912;2023-07-28T10:31:54;23.80;99.90
32534;DHT22;18973;48.580;8.912;2023-07-28T10:34:22;23.90;99.90
32534;DHT22;18973;48.580;8.912;2023-07-28T10:36:59;23.90;99.90
32534;DHT22;18973;48.580;8.912;2023-07-28T10:39:25;24.00;99.90
32534;DHT22;18973;48.580;8.912;2023-07-28T10:44:28;23.90;99.90
32534;DHT22;18973;48.580;8.912;2023-07-28T10:46:54;23.90;99.90
32534;DHT22;18973;48.580;8.912;2023-07-28T10:49:20;24.00;99.90
32534;DHT22;18973;48.580;8.912;2023-07-28T10:51:46;23.90;99.90
32534;DHT22;18973;48.580;8.912;2023-07-28T10:54:12;23.90;99.90
32534;DHT22;18973;48.580;8.912;2023-07-28T10:56:44;23.80;99.90
32534;DHT22;18973;48.580;8.912;2023-07-28T10:59:10;23.80;99.90
32534;DHT22;18973;48.580;8.912;2023-07-28T11:01:38;23.90;99.90
32534;DHT22;18973;48.580;8.912;2023-07-28T11:04:17;23.90;99.90
32534;DHT22;18973;48.580;8.912;2023-07-28T11:06:44;23.90;99.90
32534;DHT22;18973;48.580;8.912;2023-07-28T11:09:12;24.00;99.90
32534;DHT22;18973;48.580;8.912;2023-07-28T11:11:40;24.00;99.90
32534;DHT22;18973;48.580;8.912;2023-07-28T11:14:07;24.00;99.90
32534;DHT22;18973;48.580;8.912;2023-07-28T11:16:40;23.90;99.90
32534;DHT22;18973;48.580;8.912;2023-07-28T11:19:11;23.80;99.90
32534;DHT22;18973;48.580;8.912;2023-07-28T11:21:41;23.70;99.90
32534;DHT22;18973;48.580;8.912;2023-07-28T11:24:07;23.50;99.90
32534;DHT22;18973;48.580;8.912;2023-07-28T11:26:35;23.20;99.90
32534;DHT22;18973;48.580;8.912;2023-07-28T11:29:02;23.00;99.90
32534;DHT22;18973;48.580;8.912;2023-07-28T11:31:28;22.70;99.90
32534;DHT22;18973;48.580;8.912;2023-07-28T11:33:54;22.50;99.90
32534;DHT22;18973;48.580;8.912;2023-07-28T11:36:27;22.20;99.90
32534;DHT22;18973;48.580;8.912;2023-07-28T11:38:54;22.10;99.90
32534;DHT22;18973;48.580;8.912;2023-07-28T11:41:21;22.10;99.90
32534;DHT22;18973;48.580;8.912;2023-07-28T11:43:51;21.90;99.90
32534;DHT22;18973;48.580;8.912;2023-07-28T11:49:18;21.90;99.90
32534;DHT22;18973;48.580;8.912;2023-07-28T11:51:52;22.00;99.90
32534;DHT22;18973;48.580;8.912;2023-07-28T11:54:22;21.90;99.90
32534;DHT22;18973;48.580;8.912;2023-07-28T11:56:49;21.90;99.90
32534;DHT22;18973;48.580;8.912;2023-07-28T11:59:16;22.00;99.90
32534;DHT22;18973;48.580;8.912;2023-07-28T12:01:59;21.90;99.90
32534;DHT22;18973;48.580;8.912;2023-07-28T12:04:30;22.10;99.90
32534;DHT22;18973;48.580;8.912;2023-07-28T12:07:09;22.10;99.90
32534;DHT22;18973;48.580;8.912;2023-07-28T12:09:57;22.30;99.90
32534;DHT22;18973;48.580;8.912;2023-07-28T12:12:28;22.50;99.90
32534;DHT22;18973;48.580;8.912;2023-07-28T12:14:57;22.40;99.90
32534;DHT22;18973;48.580;8.912;2023-07-28T12:17:31;22.50;99.90
32534;DHT22;18973;48.580;8.912;2023-07-28T12:22:27;22.70;99.90
32534;DHT22;18973;48.580;8.912;2023-07-28T12:24:54;22.80;99.90
32534;DHT22;18973;48.580;8.912;2023-07-28T12:27:20;22.80;99.90
32534;DHT22;18973;48.580;8.912;2023-07-28T12:29:50;22.90;99.90
32534;DHT22;18973;48.580;8.912;2023-07-28T12:32:16;23.00;99.90
32534;DHT22;18973;48.580;8.912;2023-07-28T12:34:42;22.90;99.90
32534;DHT22;18973;48.580;8.912;2023-07-28T12:37:08;22.90;99.90
32534;DHT22;18973;48.580;8.912;2023-07-28T12:39:37;22.90;99.90
32534;DHT22;18973;48.580;8.912;2023-07-28T12:42:08;22.80;99.90
32534;DHT22;18973;48.580;8.912;2023-07-28T12:44:35;22.80;99.90
32534;DHT22;18973;48.580;8.912;2023-07-28T12:47:01;22.80;99.90
32534;DHT22;18973;48.580;8.912;2023-07-28T12:49:27;22.70;99.90
32534;DHT22;18973;48.580;8.912;2023-07-28T12:51:58;22.70;99.90
32534;DHT22;18973;48.580;8.912;2023-07-28T12:54:24;22.70;99.90
32534;DHT22;18973;48.580;8.912;2023-07-28T12:56:51;22.60;99.90
32534;DHT22;18973;48.580;8.912;2023-07-28T12:59:17;22.60;99.90
32534;DHT22;18973;48.580;8.912;2023-07-28T13:01:42;22.70;99.90
32534;DHT22;18973;48.580;8.912;2023-07-28T13:04:08;22.60;99.90
32534;DHT22;18973;48.580;8.912;2023-07-28T13:06:34;22.60;99.90
32534;DHT22;18973;48.580;8.912;2023-07-28T13:08:59;22.70;99.90
32534;DHT22;18973;48.580;8.912;2023-07-28T13:11:25;22.70;99.90
32534;DHT22;18973;48.580;8.912;2023-07-28T13:13:51;22.70;99.90
32534;DHT22;18973;48.580;8.912;2023-07-28T13:16:16;22.70;99.90
32534;DHT22;18973;48.580;8.912;2023-07-28T13:18:43;22.70;99.90
32534;DHT22;18973;48.580;8.912;2023-07-28T13:21:09;22.70;99.90
32534;DHT22;18973;48.580;8.912;2023-07-28T13:23:41;22.60;99.90
32534;DHT22;18973;48.580;8.912;2023-07-28T13:26:07;22.60;99.90
32534;DHT22;18973;48.580;8.912;2023-07-28T13:28:33;22.60;99.90
32534;DHT22;18973;48.580;8.912;2023-07-28T13:31:01;22.60;99.90
32534;DHT22;18973;48.580;8.912;2023-07-28T13:33:27;22.50;99.90
32534;DHT22;18973;48.580;8.912;2023-07-28T13:35:52;22.50;99.90
32534;DHT22;18973;48.580;8.912;2023-07-28T13:38:18;22.30;99.90
32534;DHT22;18973;48.580;8.912;2023-07-28T13:40:44;22.20;99.90
32534;DHT22;18973;48.580;8.912;2023-07-28T13:43:09;22.10;99.90
32534;DHT22;18973;48.580;8.912;2023-07-28T13:45:35;22.10;99.90
32534;DHT22;18973;48.580;8.912;2023-07-28T13:48:01;22.00;99.90
32534;DHT22;18973;48.580;8.912;2023-07-28T13:50:26;21.80;99.90
32534;DHT22;18973;48.580;8.912;2023-07-28T13:52:52;21.50;99.90
32534;DHT22;18973;48.580;8.912;2023-07-28T13:55:17;21.40;99.90
32534;DHT22;18973;48.580;8.912;2023-07-28T13:57:43;21.40;99.90
32534;DHT22;18973;48.580;8.912;2023-07-28T14:00:09;21.50;99.90
32534;DHT22;18973;48.580;8.912;2023-07-28T14:02:36;21.40;99.90
32534;DHT22;18973;48.580;8.912;2023-07-28T14:05:03;21.50;99.90
32534;DHT22;18973;48.580;8.912;2023-07-28T14:07:29;21.40;99.90
32534;DHT22;18973;48.580;8.912;2023-07-28T14:09:55;21.40;99.90
32534;DHT22;18973;48.580;8.912;2023-07-28T14:12:21;21.40;99.90
32534;DHT22;18973;48.580;8.912;2023-07-28T14:14:46;21.20;99.90
32534;DHT22;18973;48.580;8.912;2023-07-28T14:17:12;21.20;99.90
32534;DHT22;18973;48.580;8.912;2023-07-28T14:19:38;21.20;99.90
32534;DHT22;18973;48.580;8.912;2023-07-28T14:22:04;21.30;99.90
32534;DHT22;18973;48.580;8.912;2023-07-28T14:24:30;21.20;99.90
32534;DHT22;18973;48.580;8.912;2023-07-28T14:26:56;21.10;99.90
32534;DHT22;18973;48.580;8.912;2023-07-28T14:29:22;21.20;99.90
32534;DHT22;18973;48.580;8.912;2023-07-28T14:31:48;21.20;99.90
32534;DHT22;18973;48.580;8.912;2023-07-28T14:34:13;21.20;99.90
32534;DHT22;18973;48.580;8.912;2023-07-28T14:36:39;21.00;99.90
32534;DHT22;18973;48.580;8.912;2023-07-28T14:39:05;21.00;99.90
32534;DHT22;18973;48.580;8.912;2023-07-28T14:41:31;21.10;99.90
32534;DHT22;18973;48.580;8.912;2023-07-28T14:43:58;21.10;99.90
32534;DHT22;18973;48.580;8.912;2023-07-28T14:46:24;21.20;99.90
32534;DHT22;18973;48.580;8.912;2023-07-28T14:48:54;21.20;99.90
32534;DHT22;18973;48.580;8.912;2023-07-28T14:51:20;21.10;99.90
32534;DHT22;18973;48.580;8.912;2023-07-28T14:53:46;21.20;99.90
32534;DHT22;18973;48.580;8.912;2023-07-28T14:56:13;21.40;99.90
32534;DHT22;18973;48.580;8.912;2023-07-28T14:58:39;21.40;99.90
32534;DHT22;18973;48.580;8.912;2023-07-28T15:01:10;21.40;99.90
32534;DHT22;18973;48.580;8.912;2023-07-28T15:03:36;21.40;99.90
32534;DHT22;18973;48.580;8.912;2023-07-28T15:06:02;21.50;99.90
32534;DHT22;18973;48.580;8.912;2023-07-28T15:08:29;21.40;99.90
32534;DHT22;18973;48.580;8.912;2023-07-28T15:10:57;21.40;99.90
32534;DHT22;18973;48.580;8.912;2023-07-28T15:13:23;21.50;99.90
32534;DHT22;18973;48.580;8.912;2023-07-28T15:15:49;21.50;99.90
32534;DHT22;18973;48.580;8.912;2023-07-28T15:18:15;21.50;99.90
32534;DHT22;18973;48.580;8.912;2023-07-28T15:20:41;21.40;99.90
32534;DHT22;18973;48.580;8.912;2023-07-28T15:23:07;21.40;99.90
32534;DHT22;18973;48.580;8.912;2023-07-28T15:25:33;21.40;99.90
32534;DHT22;18973;48.580;8.912;2023-07-28T15:27:59;21.20;99.90
32534;DHT22;18973;48.580;8.912;2023-07-28T15:30:24;21.20;99.90
32534;DHT22;18973;48.580;8.912;2023-07-28T15:32:50;21.10;99.90
32534;DHT22;18973;48.580;8.912;2023-07-28T15:35:16;21.10;99.90